Time;durP1;ratioP1;P1;durP2;ratioP2;P2;SDS_P1;SDS_P2;PMS_P1;PMS_P2;Temp;Humidity;BMP_temperature;BMP_pressure;BME280_temperature;BME280_humidity;BME280_pressure;Samples;Min_cycle;Max_cycle;Signal;HPM_P1;HPM_P2
2022/09/27 00:00:36;;;;;;;;;;;12.60;95.40;;;;;;5016874;28;19949;-74
2022/09/27 00:03:03;;;;;;;;;;;12.60;95.50;;;;;;5022521;28;19975;-74
2022/09/27 00:05:31;;;;;;;;;;;12.60;95.50;;;;;;5025280;28;20309;-76
2022/09/27 00:07:57;;;;;;;;;;;12.60;95.60;;;;;;5018201;28;19929;-75
2022/09/27 00:10:24;;;;;;;;;;;12.60;95.60;;;;;;5023402;28;19975;-76
2022/09/27 00:12:51;;;;;;;;;;;12.60;95.60;;;;;;5020781;28;19933;-76
2022/09/27 00:15:19;;;;;;;;;;;12.50;95.50;;;;;;5022934;28;19972;-75
2022/09/27 00:17:45;;;;;;;;;;;12.50;95.60;;;;;;5024196;28;19951;-76
2022/09/27 00:20:12;;;;;;;;;;;12.50;95.60;;;;;;5022531;28;19955;-75
2022/09/27 00:22:39;;;;;;;;;;;12.50;95.70;;;;;;5014674;28;20003;-77
2022/09/27 00:25:06;;;;;;;;;;;12.50;95.70;;;;;;5026177;28;19929;-75
2022/09/27 00:27:33;;;;;;;;;;;12.50;95.80;;;;;;5028430;28;20384;-75
2022/09/27 00:30:00;;;;;;;;;;;12.50;95.80;;;;;;5028755;28;19940;-76
2022/09/27 00:32:26;;;;;;;;;;;12.50;95.90;;;;;;5026075;28;20443;-75
2022/09/27 00:34:53;;;;;;;;;;;12.40;95.90;;;;;;5028226;28;19933;-75
2022/09/27 00:37:20;;;;;;;;;;;12.50;96.00;;;;;;5025799;28;19987;-75
2022/09/27 00:39:47;;;;;;;;;;;12.40;96.00;;;;;;5023945;28;19933;-75
2022/09/27 00:42:14;;;;;;;;;;;12.50;96.00;;;;;;5027531;28;19936;-76
2022/09/27 00:44:59;;;;;;;;;;;12.40;96.00;;;;;;5027348;28;20253;-75
2022/09/27 00:47:28;;;;;;;;;;;12.40;96.00;;;;;;5024961;28;19928;-75
2022/09/27 00:49:55;;;;;;;;;;;12.40;96.10;;;;;;5024992;28;20396;-75
2022/09/27 00:52:23;;;;;;;;;;;12.40;96.10;;;;;;5022897;28;20035;-76
2022/09/27 00:54:53;;;;;;;;;;;12.40;96.10;;;;;;5024164;28;19979;-75
2022/09/27 00:57:22;;;;;;;;;;;12.40;96.20;;;;;;5026270;28;19933;-76
2022/09/27 00:59:50;;;;;;;;;;;12.30;96.20;;;;;;5026422;28;20304;-76
2022/09/27 01:02:16;;;;;;;;;;;12.40;96.20;;;;;;5021255;28;19975;-76
2022/09/27 01:04:43;;;;;;;;;;;12.30;96.20;;;;;;5024353;28;20015;-76
2022/09/27 01:07:10;;;;;;;;;;;12.40;96.20;;;;;;5027253;28;19941;-75
2022/09/27 01:09:36;;;;;;;;;;;12.40;96.30;;;;;;5020563;28;19994;-75
2022/09/27 01:12:07;;;;;;;;;;;12.30;96.20;;;;;;5022801;28;19933;-76
2022/09/27 01:14:41;;;;;;;;;;;12.40;96.30;;;;;;5023979;28;19998;-76
2022/09/27 01:17:12;;;;;;;;;;;12.30;96.30;;;;;;5022628;28;19929;-75
2022/09/27 01:19:53;;;;;;;;;;;12.30;96.30;;;;;;5020646;28;19933;-75
2022/09/27 01:22:22;;;;;;;;;;;12.30;96.30;;;;;;5019189;28;19940;-75
2022/09/27 01:24:55;;;;;;;;;;;12.30;96.40;;;;;;5019716;28;20012;-76
2022/09/27 01:27:40;;;;;;;;;;;12.30;96.40;;;;;;5026512;28;19936;-75
2022/09/27 01:30:13;;;;;;;;;;;12.30;96.40;;;;;;5027522;28;19929;-74
2022/09/27 01:32:45;;;;;;;;;;;12.30;96.50;;;;;;5022855;28;19933;-76
2022/09/27 01:35:16;;;;;;;;;;;12.30;96.40;;;;;;5019869;28;19929;-77
2022/09/27 01:37:45;;;;;;;;;;;12.30;96.50;;;;;;5022208;28;19936;-75
2022/09/27 01:40:18;;;;;;;;;;;12.30;96.50;;;;;;5019483;28;19933;-75
2022/09/27 01:42:47;;;;;;;;;;;12.30;96.70;;;;;;5029057;28;19937;-75
2022/09/27 01:45:20;;;;;;;;;;;12.20;96.50;;;;;;5020597;28;19929;-75
2022/09/27 01:47:49;;;;;;;;;;;12.20;96.50;;;;;;5023049;28;19939;-75
2022/09/27 01:50:19;;;;;;;;;;;12.20;96.60;;;;;;5026771;28;20407;-75
2022/09/27 01:52:48;;;;;;;;;;;12.20;96.50;;;;;;5020641;28;19929;-75
2022/09/27 01:55:16;;;;;;;;;;;12.20;96.50;;;;;;5026092;28;19933;-75
2022/09/27 01:57:45;;;;;;;;;;;12.20;96.60;;;;;;5030258;28;20715;-76
2022/09/27 02:00:13;;;;;;;;;;;12.20;96.60;;;;;;5023434;28;19936;-76
2022/09/27 02:02:43;;;;;;;;;;;12.20;96.60;;;;;;5028585;28;19932;-75
2022/09/27 02:05:13;;;;;;;;;;;12.20;96.60;;;;;;5028509;28;19933;-75
2022/09/27 02:07:42;;;;;;;;;;;12.20;96.60;;;;;;5025763;28;20011;-75
2022/09/27 02:10:11;;;;;;;;;;;12.20;96.60;;;;;;5028368;28;19937;-75
2022/09/27 02:12:40;;;;;;;;;;;12.20;96.60;;;;;;5024667;28;19933;-75
2022/09/27 02:15:08;;;;;;;;;;;12.20;96.60;;;;;;5016447;28;19933;-75
2022/09/27 02:17:37;;;;;;;;;;;12.10;96.90;;;;;;5027235;28;20019;-74
2022/09/27 02:20:11;;;;;;;;;;;12.10;96.60;;;;;;5023709;28;19929;-75
2022/09/27 02:22:39;;;;;;;;;;;12.20;96.70;;;;;;5034559;28;19932;-75
2022/09/27 02:25:10;;;;;;;;;;;12.10;96.60;;;;;;5027806;28;19975;-76
2022/09/27 02:27:40;;;;;;;;;;;12.10;96.60;;;;;;5023202;28;19929;-76
2022/09/27 02:30:08;;;;;;;;;;;12.10;96.60;;;;;;5028062;28;19932;-75
2022/09/27 02:32:35;;;;;;;;;;;12.10;96.70;;;;;;5015459;28;19933;-75
2022/09/27 02:35:05;;;;;;;;;;;12.10;96.70;;;;;;5028673;28;19924;-76
2022/09/27 02:37:33;;;;;;;;;;;12.00;96.60;;;;;;5025896;28;19935;-75
2022/09/27 02:40:00;;;;;;;;;;;12.10;96.70;;;;;;5022729;28;19960;-75
2022/09/27 02:42:27;;;;;;;;;;;12.00;96.70;;;;;;5023692;28;19929;-76
2022/09/27 02:44:54;;;;;;;;;;;12.10;96.70;;;;;;5027099;28;20011;-75
2022/09/27 02:47:30;;;;;;;;;;;12.00;96.70;;;;;;5021837;28;19937;-75
2022/09/27 02:50:02;;;;;;;;;;;12.00;96.70;;;;;;5017290;28;20464;-75
2022/09/27 02:52:31;;;;;;;;;;;12.00;96.70;;;;;;5024795;28;19929;-75
2022/09/27 02:55:06;;;;;;;;;;;12.00;96.70;;;;;;5020276;28;20341;-76
2022/09/27 02:57:38;;;;;;;;;;;12.00;96.70;;;;;;5019935;28;20452;-74
2022/09/27 03:00:08;;;;;;;;;;;12.00;96.70;;;;;;5024211;28;20698;-74
2022/09/27 03:02:40;;;;;;;;;;;12.00;96.70;;;;;;5024673;28;19933;-75
2022/09/27 03:05:08;;;;;;;;;;;12.00;96.70;;;;;;5022812;28;19933;-75
2022/09/27 03:07:35;;;;;;;;;;;12.00;96.70;;;;;;5016812;28;19936;-72
2022/09/27 03:10:03;;;;;;;;;;;11.90;96.70;;;;;;5021736;28;19929;-76
2022/09/27 03:12:29;;;;;;;;;;;11.90;96.70;;;;;;5019181;28;19929;-75
2022/09/27 03:14:56;;;;;;;;;;;11.90;96.70;;;;;;5019893;28;19937;-75
2022/09/27 03:17:23;;;;;;;;;;;11.90;96.70;;;;;;5028569;28;19958;-75
2022/09/27 03:19:50;;;;;;;;;;;11.90;96.70;;;;;;5020635;28;20762;-75
2022/09/27 03:22:17;;;;;;;;;;;11.90;96.80;;;;;;5022843;28;19933;-75
2022/09/27 03:24:43;;;;;;;;;;;11.80;96.40;;;;;;5023365;28;19932;-75
2022/09/27 03:27:11;;;;;;;;;;;11.70;96.70;;;;;;5023745;28;20011;-76
2022/09/27 03:29:38;;;;;;;;;;;11.70;96.90;;;;;;5030115;28;19936;-76
2022/09/27 03:32:04;;;;;;;;;;;11.60;97.30;;;;;;5016658;28;19952;-74
2022/09/27 03:34:31;;;;;;;;;;;11.70;97.10;;;;;;5024071;28;19979;-77
2022/09/27 03:36:57;;;;;;;;;;;11.70;97.10;;;;;;5018655;28;19933;-76
2022/09/27 03:39:24;;;;;;;;;;;11.70;97.00;;;;;;5023845;28;19951;-74
2022/09/27 03:41:50;;;;;;;;;;;11.70;97.00;;;;;;5021922;28;20307;-76
2022/09/27 03:44:18;;;;;;;;;;;11.70;97.00;;;;;;5022983;28;19939;-76
2022/09/27 03:46:45;;;;;;;;;;;11.70;97.00;;;;;;5019833;28;19932;-76
2022/09/27 03:49:11;;;;;;;;;;;11.70;97.00;;;;;;5024947;28;19929;-76
2022/09/27 03:51:38;;;;;;;;;;;11.70;97.00;;;;;;5024128;28;19929;-76
2022/09/27 03:54:04;;;;;;;;;;;11.70;97.10;;;;;;5016861;28;19975;-75
2022/09/27 03:56:31;;;;;;;;;;;11.70;96.90;;;;;;5014286;28;20018;-76
2022/09/27 03:58:57;;;;;;;;;;;11.70;96.90;;;;;;5022313;28;20442;-76
2022/09/27 04:01:26;;;;;;;;;;;11.70;96.90;;;;;;5026120;28;19929;-74
2022/09/27 04:03:53;;;;;;;;;;;11.70;96.90;;;;;;5027053;28;19964;-76
2022/09/27 04:06:19;;;;;;;;;;;11.70;97.00;;;;;;5030780;28;19929;-75
2022/09/27 04:08:46;;;;;;;;;;;11.70;96.90;;;;;;5033352;28;19937;-76
2022/09/27 04:11:14;;;;;;;;;;;11.70;96.90;;;;;;5024333;28;20594;-76
2022/09/27 04:13:40;;;;;;;;;;;11.70;96.90;;;;;;5027496;28;19933;-76
2022/09/27 04:16:07;;;;;;;;;;;11.70;96.90;;;;;;5016809;28;19929;-76
2022/09/27 04:18:35;;;;;;;;;;;11.70;96.90;;;;;;5010212;28;20445;-73
2022/09/27 04:21:02;;;;;;;;;;;11.70;96.90;;;;;;5005292;28;19930;-75
2022/09/27 04:23:28;;;;;;;;;;;11.70;96.90;;;;;;5005577;28;19937;-75
2022/09/27 04:25:55;;;;;;;;;;;11.60;96.90;;;;;;5004588;28;20698;-75
2022/09/27 04:28:21;;;;;;;;;;;11.60;96.90;;;;;;5007734;28;19933;-75
2022/09/27 04:30:48;;;;;;;;;;;11.60;96.90;;;;;;5009856;28;19960;-75
2022/09/27 04:33:14;;;;;;;;;;;11.60;97.20;;;;;;5010115;28;19934;-75
2022/09/27 04:38:27;;;;;;;;;;;11.60;96.90;;;;;;5008692;28;19936;-75
2022/09/27 04:40:54;;;;;;;;;;;11.60;96.90;;;;;;5008101;28;19979;-75
2022/09/27 04:43:20;;;;;;;;;;;11.60;96.90;;;;;;5002137;28;19929;-76
2022/09/27 04:45:47;;;;;;;;;;;11.60;96.90;;;;;;5007911;28;19936;-76
2022/09/27 04:48:13;;;;;;;;;;;11.60;96.90;;;;;;5004708;28;19945;-75
2022/09/27 04:50:40;;;;;;;;;;;11.60;96.90;;;;;;5006224;28;19930;-76
2022/09/27 04:53:13;;;;;;;;;;;11.60;96.90;;;;;;5002778;28;19930;-75
2022/09/27 04:55:39;;;;;;;;;;;11.60;96.90;;;;;;5001663;28;20393;-75
2022/09/27 04:58:06;;;;;;;;;;;11.50;96.90;;;;;;4999049;28;20286;-75
2022/09/27 05:00:32;;;;;;;;;;;11.50;96.90;;;;;;5001715;28;19976;-75
2022/09/27 05:02:59;;;;;;;;;;;11.50;96.90;;;;;;5000791;28;19934;-75
2022/09/27 05:05:25;;;;;;;;;;;11.50;96.90;;;;;;5001709;28;20532;-75
2022/09/27 05:07:52;;;;;;;;;;;11.50;96.90;;;;;;5003750;28;19933;-74
2022/09/27 05:10:20;;;;;;;;;;;11.50;97.00;;;;;;5003872;28;20016;-76
2022/09/27 05:12:46;;;;;;;;;;;11.50;97.00;;;;;;4999718;28;20313;-75
2022/09/27 05:15:13;;;;;;;;;;;11.50;96.90;;;;;;4998066;28;19933;-75
2022/09/27 05:17:39;;;;;;;;;;;11.50;96.90;;;;;;5005659;28;19937;-75
2022/09/27 05:20:06;;;;;;;;;;;11.50;96.90;;;;;;5003624;28;20363;-75
2022/09/27 05:22:32;;;;;;;;;;;11.50;96.90;;;;;;4999963;28;19961;-75
2022/09/27 05:24:59;;;;;;;;;;;11.50;96.90;;;;;;5004256;28;19961;-76
2022/09/27 05:27:27;;;;;;;;;;;11.50;96.90;;;;;;5001505;28;19952;-76
2022/09/27 05:29:55;;;;;;;;;;;11.50;96.90;;;;;;5010110;28;19990;-74
2022/09/27 05:32:22;;;;;;;;;;;11.50;96.90;;;;;;5004925;28;19969;-70
2022/09/27 05:34:52;;;;;;;;;;;11.50;96.90;;;;;;5008717;28;19973;-70
2022/09/27 05:37:18;;;;;;;;;;;11.40;96.80;;;;;;5005194;28;19934;-70
2022/09/27 05:39:45;;;;;;;;;;;11.40;96.80;;;;;;5007305;28;19929;-71
2022/09/27 05:42:14;;;;;;;;;;;11.50;96.80;;;;;;5004467;28;19933;-71
2022/09/27 05:44:45;;;;;;;;;;;11.40;96.80;;;;;;5004630;28;19944;-71
2022/09/27 05:47:12;;;;;;;;;;;11.50;96.80;;;;;;5005177;28;19936;-71
2022/09/27 05:49:39;;;;;;;;;;;11.40;96.80;;;;;;5007049;28;19995;-70
2022/09/27 05:52:06;;;;;;;;;;;11.40;96.80;;;;;;5002767;28;19930;-70
2022/09/27 05:54:33;;;;;;;;;;;11.40;96.80;;;;;;4949200;28;1722142;-71
2022/09/27 05:56:59;;;;;;;;;;;11.40;96.90;;;;;;5004482;28;19935;-71
2022/09/27 05:59:26;;;;;;;;;;;11.40;96.90;;;;;;5005172;28;19935;-69
2022/09/27 06:01:54;;;;;;;;;;;11.40;96.90;;;;;;5011016;28;19991;-71
2022/09/27 06:04:21;;;;;;;;;;;11.40;96.80;;;;;;5028628;28;19975;-70
2022/09/27 06:06:48;;;;;;;;;;;11.30;96.80;;;;;;5016589;28;19929;-69
2022/09/27 06:09:15;;;;;;;;;;;11.30;96.80;;;;;;5024348;28;20418;-76
2022/09/27 06:11:44;;;;;;;;;;;11.30;96.80;;;;;;5018258;28;20389;-76
2022/09/27 06:14:10;;;;;;;;;;;11.40;96.90;;;;;;5013989;28;20301;-76
2022/09/27 06:16:37;;;;;;;;;;;11.40;96.90;;;;;;5021279;28;19952;-75
2022/09/27 06:19:05;;;;;;;;;;;11.30;96.90;;;;;;5022967;28;20139;-74
2022/09/27 06:21:31;;;;;;;;;;;11.40;96.90;;;;;;5017239;28;20516;-75
2022/09/27 06:23:58;;;;;;;;;;;11.30;96.90;;;;;;5020138;28;19929;-75
2022/09/27 06:26:26;;;;;;;;;;;11.30;96.90;;;;;;5020616;28;19933;-76
2022/09/27 06:28:53;;;;;;;;;;;11.30;96.90;;;;;;5022447;28;19991;-75
2022/09/27 06:31:20;;;;;;;;;;;11.40;96.90;;;;;;5027136;28;20401;-75
2022/09/27 06:33:47;;;;;;;;;;;11.30;96.80;;;;;;5022423;28;19957;-76
2022/09/27 06:36:15;;;;;;;;;;;11.30;96.80;;;;;;5020058;28;19929;-76
2022/09/27 06:38:42;;;;;;;;;;;11.30;96.80;;;;;;5023299;28;20428;-74
2022/09/27 06:41:09;;;;;;;;;;;11.30;96.80;;;;;;5018851;28;19929;-77
2022/09/27 06:43:36;;;;;;;;;;;11.30;96.80;;;;;;5021734;28;19940;-75
2022/09/27 06:46:04;;;;;;;;;;;11.30;96.80;;;;;;5020928;28;19979;-75
2022/09/27 06:48:31;;;;;;;;;;;11.30;96.80;;;;;;5028368;28;19929;-75
2022/09/27 06:50:57;;;;;;;;;;;11.30;96.80;;;;;;5023459;28;19983;-75
2022/09/27 06:53:28;;;;;;;;;;;11.30;96.80;;;;;;5019320;28;19925;-76
2022/09/27 06:55:57;;;;;;;;;;;11.20;96.80;;;;;;5024846;28;19937;-76
2022/09/27 07:01:08;;;;;;;;;;;11.20;96.80;;;;;;5020870;28;19978;-75
2022/09/27 07:03:38;;;;;;;;;;;11.20;96.80;;;;;;5021710;28;19933;-74
2022/09/27 07:06:06;;;;;;;;;;;11.30;96.80;;;;;;5017298;28;20660;-75
2022/09/27 07:08:34;;;;;;;;;;;11.20;96.80;;;;;;5019576;28;20289;-75
2022/09/27 07:11:02;;;;;;;;;;;11.20;96.80;;;;;;5020847;28;20014;-75
2022/09/27 07:13:31;;;;;;;;;;;11.20;96.80;;;;;;5018338;28;19925;-76
2022/09/27 07:15:58;;;;;;;;;;;11.20;96.80;;;;;;5020364;28;20474;-76
2022/09/27 07:18:24;;;;;;;;;;;11.20;96.80;;;;;;5021257;28;19937;-75
2022/09/27 07:20:51;;;;;;;;;;;11.20;96.80;;;;;;5019554;28;19939;-75
2022/09/27 07:23:18;;;;;;;;;;;11.20;96.80;;;;;;5018221;28;20424;-76
2022/09/27 07:25:46;;;;;;;;;;;11.20;96.80;;;;;;5018478;28;20645;-74
2022/09/27 07:28:14;;;;;;;;;;;11.20;96.80;;;;;;5015734;28;19933;-76
2022/09/27 07:30:41;;;;;;;;;;;11.20;96.80;;;;;;5017045;28;19936;-74
2022/09/27 07:33:08;;;;;;;;;;;11.20;96.80;;;;;;5018643;28;19997;-75
2022/09/27 07:35:38;;;;;;;;;;;11.20;96.80;;;;;;5018220;28;20023;-76
2022/09/27 07:38:07;;;;;;;;;;;11.20;96.80;;;;;;5024127;28;20000;-76
2022/09/27 07:40:34;;;;;;;;;;;11.10;96.70;;;;;;5023544;28;19963;-74
2022/09/27 07:43:02;;;;;;;;;;;11.10;96.70;;;;;;5020631;28;19933;-75
2022/09/27 07:45:30;;;;;;;;;;;11.20;96.80;;;;;;5020248;28;20363;-76
2022/09/27 07:47:56;;;;;;;;;;;11.20;96.70;;;;;;5018716;28;19929;-75
2022/09/27 07:50:23;;;;;;;;;;;11.20;96.70;;;;;;5022210;28;20528;-75
2022/09/27 07:52:50;;;;;;;;;;;11.10;96.60;;;;;;5020876;28;19936;-76
2022/09/27 07:55:18;;;;;;;;;;;11.10;97.00;;;;;;5020893;28;19929;-75
2022/09/27 07:57:45;;;;;;;;;;;11.20;96.70;;;;;;5018177;28;19929;-75
2022/09/27 08:00:14;;;;;;;;;;;11.20;96.70;;;;;;5020496;28;19936;-76
2022/09/27 08:02:41;;;;;;;;;;;11.10;96.60;;;;;;5018572;28;20027;-76
2022/09/27 08:05:08;;;;;;;;;;;11.20;96.60;;;;;;5017348;28;20016;-75
2022/09/27 08:07:35;;;;;;;;;;;11.10;96.60;;;;;;5016904;28;19929;-73
2022/09/27 08:10:02;;;;;;;;;;;11.20;96.60;;;;;;5024245;28;20035;-76
2022/09/27 08:12:29;;;;;;;;;;;11.10;96.60;;;;;;5019899;28;19929;-76
2022/09/27 08:15:00;;;;;;;;;;;11.20;96.60;;;;;;5020811;28;19925;-76
2022/09/27 08:17:28;;;;;;;;;;;11.20;96.60;;;;;;5016913;28;19933;-77
2022/09/27 08:19:55;;;;;;;;;;;11.20;96.60;;;;;;5016006;28;20302;-76
2022/09/27 08:22:21;;;;;;;;;;;11.20;96.60;;;;;;5023483;28;20779;-76
2022/09/27 08:24:48;;;;;;;;;;;11.20;96.50;;;;;;5024246;28;19929;-76
2022/09/27 08:27:15;;;;;;;;;;;11.20;96.50;;;;;;5024494;28;19933;-75
2022/09/27 08:29:42;;;;;;;;;;;11.20;96.50;;;;;;5021157;28;19929;-76
2022/09/27 08:32:09;;;;;;;;;;;11.20;96.50;;;;;;5019102;28;19975;-76
2022/09/27 08:34:37;;;;;;;;;;;11.20;96.50;;;;;;5018103;28;19940;-76
2022/09/27 08:37:04;;;;;;;;;;;11.20;96.50;;;;;;5018890;28;20427;-76
2022/09/27 08:39:30;;;;;;;;;;;11.20;96.40;;;;;;5022972;28;20404;-76
2022/09/27 08:42:02;;;;;;;;;;;11.30;96.50;;;;;;5018290;28;20976;-76
2022/09/27 08:44:32;;;;;;;;;;;11.20;96.40;;;;;;5017148;28;20304;-75
2022/09/27 08:47:02;;;;;;;;;;;11.30;96.40;;;;;;5020666;28;19940;-76
2022/09/27 08:49:33;;;;;;;;;;;11.30;96.50;;;;;;5028129;28;19929;-77
2022/09/27 08:52:01;;;;;;;;;;;11.30;96.50;;;;;;5022787;28;20324;-76
2022/09/27 08:54:30;;;;;;;;;;;11.30;96.40;;;;;;5023453;28;20304;-77
2022/09/27 08:57:01;;;;;;;;;;;11.30;96.30;;;;;;5025283;28;19928;-74
2022/09/27 08:59:29;;;;;;;;;;;11.30;96.20;;;;;;5023057;28;20019;-77
2022/09/27 09:01:56;;;;;;;;;;;11.40;96.20;;;;;;5026065;28;19929;-75
2022/09/27 09:04:28;;;;;;;;;;;11.40;96.10;;;;;;5026266;28;19933;-77
2022/09/27 09:06:59;;;;;;;;;;;11.40;96.00;;;;;;5023677;28;19933;-76
2022/09/27 09:09:33;;;;;;;;;;;11.40;95.80;;;;;;5013881;28;19929;-76
2022/09/27 09:14:55;;;;;;;;;;;11.50;95.80;;;;;;5024135;28;20322;-76
2022/09/27 09:17:27;;;;;;;;;;;11.40;95.80;;;;;;5025418;28;19984;-76
2022/09/27 09:20:00;;;;;;;;;;;11.50;95.80;;;;;;5024967;28;20900;-77
2022/09/27 09:22:34;;;;;;;;;;;11.50;95.80;;;;;;5019526;28;20397;-74
2022/09/27 09:25:09;;;;;;;;;;;11.50;95.80;;;;;;5026330;28;19933;-76
2022/09/27 09:27:40;;;;;;;;;;;11.50;95.80;;;;;;5026273;28;19930;-76
2022/09/27 09:30:19;;;;;;;;;;;11.50;95.90;;;;;;5025265;28;20695;-75
2022/09/27 09:32:55;;;;;;;;;;;11.50;96.00;;;;;;5025135;28;19937;-74
2022/09/27 09:35:23;;;;;;;;;;;11.50;96.00;;;;;;5021037;28;20060;-74
2022/09/27 09:37:52;;;;;;;;;;;11.50;96.10;;;;;;5024396;28;19929;-76
2022/09/27 09:40:22;;;;;;;;;;;11.50;96.10;;;;;;5018231;28;20407;-75
2022/09/27 09:42:52;;;;;;;;;;;11.50;96.10;;;;;;5025979;28;20661;-75
2022/09/27 09:45:20;;;;;;;;;;;11.50;96.10;;;;;;5021655;28;19991;-76
2022/09/27 09:47:50;;;;;;;;;;;11.50;96.10;;;;;;5021060;28;19979;-77
2022/09/27 09:50:18;;;;;;;;;;;11.50;96.10;;;;;;5021479;28;19929;-76
2022/09/27 09:52:48;;;;;;;;;;;11.60;96.10;;;;;;5019321;28;19928;-69
2022/09/27 09:55:17;;;;;;;;;;;11.60;96.00;;;;;;5029138;28;19979;-71
2022/09/27 09:57:50;;;;;;;;;;;11.60;95.90;;;;;;5027159;28;20049;-70
2022/09/27 10:00:18;;;;;;;;;;;11.60;95.90;;;;;;5023701;28;19936;-69
2022/09/27 10:02:46;;;;;;;;;;;11.50;95.90;;;;;;5021424;28;20040;-71
2022/09/27 10:05:14;;;;;;;;;;;11.60;95.90;;;;;;5018357;28;19933;-69
2022/09/27 10:07:41;;;;;;;;;;;11.60;95.90;;;;;;5028512;28;19988;-70
2022/09/27 10:10:08;;;;;;;;;;;11.60;95.90;;;;;;5018634;28;19945;-69
2022/09/27 10:12:36;;;;;;;;;;;11.60;95.90;;;;;;5025041;28;20471;-70
2022/09/27 10:15:05;;;;;;;;;;;11.70;95.90;;;;;;5022130;28;19936;-70
2022/09/27 10:17:35;;;;;;;;;;;11.60;95.90;;;;;;5025203;28;19936;-70
2022/09/27 10:20:03;;;;;;;;;;;11.60;95.90;;;;;;5024987;28;19959;-69
2022/09/27 10:22:32;;;;;;;;;;;11.70;96.00;;;;;;5028558;28;19960;-69
2022/09/27 10:25:01;;;;;;;;;;;11.70;96.00;;;;;;5022628;28;20409;-70
2022/09/27 10:27:28;;;;;;;;;;;11.60;96.00;;;;;;5031731;28;19929;-71
2022/09/27 10:29:58;;;;;;;;;;;11.60;96.00;;;;;;5022308;28;20402;-71
2022/09/27 10:32:29;;;;;;;;;;;11.70;96.10;;;;;;5021116;28;19937;-70
2022/09/27 10:34:56;;;;;;;;;;;11.60;96.10;;;;;;5019968;28;19933;-70
2022/09/27 10:37:23;;;;;;;;;;;11.60;96.20;;;;;;5020396;28;19929;-72
2022/09/27 10:39:51;;;;;;;;;;;11.70;96.30;;;;;;5027233;28;20006;-70
2022/09/27 10:42:20;;;;;;;;;;;11.70;96.40;;;;;;5020900;28;19929;-70
2022/09/27 10:44:46;;;;;;;;;;;11.60;96.40;;;;;;5026056;28;19936;-69
2022/09/27 10:47:18;;;;;;;;;;;11.70;96.50;;;;;;5029860;28;19929;-70
2022/09/27 10:49:46;;;;;;;;;;;11.70;96.60;;;;;;5029588;28;19933;-80
2022/09/27 10:52:15;;;;;;;;;;;11.80;96.80;;;;;;5012741;28;19940;-77
2022/09/27 10:54:52;;;;;;;;;;;11.80;96.70;;;;;;5017235;28;19941;-77
2022/09/27 10:57:20;;;;;;;;;;;11.80;96.60;;;;;;5017404;28;19936;-76
2022/09/27 10:59:51;;;;;;;;;;;11.80;96.50;;;;;;5019710;28;20316;-79
2022/09/27 11:02:20;;;;;;;;;;;11.90;96.50;;;;;;5019821;28;19929;-77
2022/09/27 11:07:49;;;;;;;;;;;11.90;96.60;;;;;;5080828;27;20564;-78
2022/09/27 11:10:27;;;;;;;;;;;11.90;96.10;;;;;;5076502;28;20227;-77
2022/09/27 11:13:13;;;;;;;;;;;11.90;95.90;;;;;;5075552;28;19932;-79
2022/09/27 11:15:45;;;;;;;;;;;11.90;95.90;;;;;;5076922;28;20324;-80
2022/09/27 11:18:16;;;;;;;;;;;11.90;95.80;;;;;;5075277;28;19939;-79
2022/09/27 11:20:46;;;;;;;;;;;11.90;95.80;;;;;;5074410;28;19932;-80
2022/09/27 11:23:30;;;;;;;;;;;11.80;95.80;;;;;;5074317;28;19928;-78
2022/09/27 11:26:09;;;;;;;;;;;11.80;95.80;;;;;;5066540;28;19929;-81
2022/09/27 11:28:43;;;;;;;;;;;11.80;95.90;;;;;;5065931;28;19935;-82
2022/09/27 11:31:13;;;;;;;;;;;11.80;95.90;;;;;;5070094;28;19929;-83
2022/09/27 11:33:50;;;;;;;;;;;11.80;95.90;;;;;;5072347;28;19928;-83
2022/09/27 11:36:20;;;;;;;;;;;11.80;95.80;;;;;;5072252;28;19928;-83
2022/09/27 11:38:56;;;;;;;;;;;11.80;95.60;;;;;;5083387;28;20362;-83
2022/09/27 11:41:38;;;;;;;;;;;11.80;95.60;;;;;;5072250;28;19934;-80
2022/09/27 11:44:14;;;;;;;;;;;11.80;95.50;;;;;;5068826;28;20336;-82
2022/09/27 11:46:41;;;;;;;;;;;11.80;95.40;;;;;;5073118;28;19944;-82
2022/09/27 11:49:22;;;;;;;;;;;11.80;95.40;;;;;;5067664;28;20011;-80
2022/09/27 11:51:58;;;;;;;;;;;11.80;95.30;;;;;;5064300;28;19939;-81
2022/09/27 11:54:33;;;;;;;;;;;11.80;95.20;;;;;;5073660;28;19928;-80
2022/09/27 11:57:04;;;;;;;;;;;11.80;95.20;;;;;;5072264;28;19929;-81
2022/09/27 11:59:40;;;;;;;;;;;11.80;95.20;;;;;;5073541;28;19928;-80
2022/09/27 12:02:13;;;;;;;;;;;11.90;95.20;;;;;;5073523;28;19928;-80
2022/09/27 12:04:51;;;;;;;;;;;11.90;95.10;;;;;;5076793;28;19940;-81
2022/09/27 12:07:21;;;;;;;;;;;11.90;94.90;;;;;;5091407;28;19924;-81
2022/09/27 12:09:50;;;;;;;;;;;11.90;94.70;;;;;;5093139;28;19928;-81
2022/09/27 12:12:20;;;;;;;;;;;11.90;94.50;;;;;;5091395;28;19939;-80
2022/09/27 12:14:53;;;;;;;;;;;12.00;94.40;;;;;;5088699;28;20038;-80
2022/09/27 12:17:23;;;;;;;;;;;12.00;94.60;;;;;;5092522;27;19928;-80
2022/09/27 12:19:51;;;;;;;;;;;12.10;94.50;;;;;;5080313;28;19977;-80
2022/09/27 12:22:21;;;;;;;;;;;12.20;94.30;;;;;;5079255;28;19932;-79
2022/09/27 12:24:48;;;;;;;;;;;12.20;94.20;;;;;;5076880;28;20116;-80
2022/09/27 12:27:19;;;;;;;;;;;12.30;94.10;;;;;;5074844;28;20376;-80
2022/09/27 12:29:46;;;;;;;;;;;12.40;93.80;;;;;;5078209;28;19939;-83
2022/09/27 12:32:16;;;;;;;;;;;12.50;93.60;;;;;;5075312;28;19963;-82
2022/09/27 12:34:48;;;;;;;;;;;12.50;93.50;;;;;;5079809;28;19983;-82
2022/09/27 12:37:18;;;;;;;;;;;12.60;93.40;;;;;;5077534;28;19989;-82
2022/09/27 12:39:50;;;;;;;;;;;12.60;93.20;;;;;;5083226;28;19939;-83
2022/09/27 12:42:20;;;;;;;;;;;12.70;93.10;;;;;;5084699;28;19932;-84
2022/09/27 12:44:47;;;;;;;;;;;12.80;92.90;;;;;;5078704;28;20456;-82
2022/09/27 12:47:19;;;;;;;;;;;12.80;92.80;;;;;;5080046;28;20249;-82
2022/09/27 12:49:50;;;;;;;;;;;12.80;92.80;;;;;;5083635;28;19954;-82
2022/09/27 12:52:22;;;;;;;;;;;12.80;92.70;;;;;;5072459;28;20316;-84
2022/09/27 12:54:55;;;;;;;;;;;12.80;92.70;;;;;;5077776;28;19935;-83
2022/09/27 12:57:29;;;;;;;;;;;12.80;92.70;;;;;;5082655;28;19997;-82
2022/09/27 13:00:01;;;;;;;;;;;12.80;93.00;;;;;;5082228;28;20328;-82
2022/09/27 13:02:52;;;;;;;;;;;12.80;92.70;;;;;;5081863;28;20431;-82
2022/09/27 13:05:28;;;;;;;;;;;12.80;92.70;;;;;;5067957;28;19954;-83
2022/09/27 13:08:13;;;;;;;;;;;12.80;92.70;;;;;;5064488;28;19934;-83
2022/09/27 13:10:44;;;;;;;;;;;12.90;92.70;;;;;;5079051;28;19928;-81
2022/09/27 13:13:14;;;;;;;;;;;12.80;92.70;;;;;;5080764;28;19959;-81
2022/09/27 13:15:44;;;;;;;;;;;12.90;92.80;;;;;;5075886;28;19927;-82
2022/09/27 13:18:28;;;;;;;;;;;12.80;92.40;;;;;;5085708;28;20341;-83
2022/09/27 13:20:56;;;;;;;;;;;12.80;92.70;;;;;;5078009;28;20359;-83
2022/09/27 13:23:57;;;;;;;;;;;12.80;92.40;;;;;;5082215;28;19955;-84
2022/09/27 13:26:39;;;;;;;;;;;12.80;92.30;;;;;;5081850;28;19993;-84
2022/09/27 13:29:20;;;;;;;;;;;12.70;92.40;;;;;;5077822;28;19935;-84
2022/09/27 13:32:09;;;;;;;;;;;12.70;92.50;;;;;;5082381;28;19928;-84
2022/09/27 13:34:40;;;;;;;;;;;12.70;92.70;;;;;;5081307;28;19928;-82
2022/09/27 13:37:36;;;;;;;;;;;12.70;92.90;;;;;;5076278;28;19935;-82
2022/09/27 13:40:27;;;;;;;;;;;12.70;93.00;;;;;;5020084;28;20313;-81
2022/09/27 13:43:12;;;;;;;;;;;12.70;93.00;;;;;;5069828;28;22466;-81
2022/09/27 13:45:41;;;;;;;;;;;12.70;93.10;;;;;;5063123;28;20736;-80
2022/09/27 13:48:09;;;;;;;;;;;12.80;93.20;;;;;;5082416;28;20506;-81
2022/09/27 13:50:39;;;;;;;;;;;12.70;93.10;;;;;;5077573;28;19932;-81
2022/09/27 13:53:06;;;;;;;;;;;12.70;93.00;;;;;;5077822;28;20241;-81
2022/09/27 13:55:41;;;;;;;;;;;12.80;93.00;;;;;;5079514;28;19928;-80
2022/09/27 13:58:29;;;;;;;;;;;12.70;92.90;;;;;;5079894;28;19932;-81
2022/09/27 14:01:00;;;;;;;;;;;12.70;92.80;;;;;;5078662;28;19934;-81
2022/09/27 14:03:29;;;;;;;;;;;12.80;92.70;;;;;;5079359;28;19928;-80
2022/09/27 14:05:57;;;;;;;;;;;12.80;92.70;;;;;;5079843;28;19939;-81
2022/09/27 14:08:26;;;;;;;;;;;12.80;92.70;;;;;;5081521;28;20422;-79
2022/09/27 14:10:54;;;;;;;;;;;12.70;92.00;;;;;;5070120;28;19928;-79
2022/09/27 14:13:22;;;;;;;;;;;12.70;90.80;;;;;;5072035;28;19932;-79
2022/09/27 14:15:49;;;;;;;;;;;12.60;92.10;;;;;;5069556;28;20011;-79
2022/09/27 14:18:17;;;;;;;;;;;12.60;93.90;;;;;;5072276;28;19970;-79
2022/09/27 14:20:45;;;;;;;;;;;12.50;95.20;;;;;;5075835;28;19939;-80
2022/09/27 14:23:15;;;;;;;;;;;12.70;96.20;;;;;;5075569;28;20140;-80
2022/09/27 14:25:44;;;;;;;;;;;12.70;96.80;;;;;;5076010;28;19932;-81
2022/09/27 14:28:19;;;;;;;;;;;12.80;97.40;;;;;;5068593;28;21512;-80
2022/09/27 14:30:46;;;;;;;;;;;12.80;97.90;;;;;;5075434;28;19977;-80
2022/09/27 14:33:28;;;;;;;;;;;12.90;98.40;;;;;;5073195;28;19928;-81
2022/09/27 14:38:40;;;;;;;;;;;12.90;98.90;;;;;;5074473;28;20280;-80
2022/09/27 14:41:08;;;;;;;;;;;12.90;99.10;;;;;;5070836;28;19935;-81
2022/09/27 14:43:35;;;;;;;;;;;13.00;99.40;;;;;;5075766;28;19985;-80